EDLV/NRN METAR and TAF weather

Enter ICAO airport designator
Station Type Date Time Source
EDLV METAR 2022/06/27 17:50 UTC NOAA

EDLV 271750Z 24007KT 210V270 9999 FEW013 18/14 Q1019


Station Type Date Time Source
EDLV Decoded METAR 2022/06/27 17:50 UTC NOAA

Niederrhein, Germany (EDLV) 51-36-09N 006-08-32E
Jun 27, 2022 - 01:50 PM EDT / 2022.06.27 1750 UTC
Wind: from the WSW (240 degrees) at 8 MPH (7 KT) (direction variable):0
Visibility: greater than 7 mile(s):0
Sky conditions: mostly clear
Temperature: 64 F (18 C)
Dew Point: 57 F (14 C)
Relative Humidity: 77%
Pressure (altimeter): 30.09 in. Hg (1019 hPa)
ob: EDLV 271750Z 24007KT 210V270 9999 FEW013 18/14 Q1019
cycle: 18

Station Type Date Time Source
EDLV TAF 2022/06/27 18:27 UTC NOAA

TAF EDLV 271700Z 2718/2818 VRB03KT CAVOK PROB30
TEMPO 2803/2805 4000 BR
TEMPO 2808/2813 21005KT

Example: see airport list